Terminal Aerodrome Forecast
Issued by NWS Louisville, KY

Home | Current Version | Previous Version | Text Only | Print | Product List | Glossary On
Versions: 1 2 3 4 5 6 7 8 9 10 11 12 13 14 15
719
FTUS43 KLMK 081134
TAFSDF
TAF
KSDF 081134Z 0812/0918 31010KT P6SM OVC080
     FM081400 29010G17KT P6SM BKN250
     FM090300 30009KT P6SM BKN040=

USA.gov is the U.S. government's official web portal to all federal, state and local government web resources and services.